createdAt,value
2019-01-30T00:00:36.877Z,68.10
2019-01-30T00:03:07.381Z,68.50
2019-01-30T00:05:37.876Z,68.70
2019-01-30T00:08:08.275Z,69.20
2019-01-30T00:10:38.797Z,69.00
2019-01-30T00:13:09.058Z,68.70
2019-01-30T00:15:39.806Z,68.90
2019-01-30T00:18:10.028Z,68.90
2019-01-30T00:20:40.642Z,69.00
2019-01-30T00:23:12.568Z,69.00
2019-01-30T00:25:44.052Z,68.80
2019-01-30T00:28:14.248Z,69.30
2019-01-30T00:30:44.530Z,69.30
2019-01-30T00:33:14.927Z,69.60
2019-01-30T00:35:45.112Z,69.10
2019-01-30T00:38:15.675Z,68.80
2019-01-30T00:40:46.046Z,67.40
2019-01-30T00:43:16.563Z,68.60
2019-01-30T00:45:47.909Z,69.00
2019-01-30T00:48:18.580Z,69.10
2019-01-30T00:50:48.901Z,69.10
2019-01-30T00:53:19.643Z,69.30
2019-01-30T00:55:50.387Z,69.30
2019-01-30T00:58:20.695Z,69.10
2019-01-30T01:00:53.131Z,68.80
2019-01-30T01:03:23.737Z,69.40
2019-01-30T01:05:54.030Z,69.10
2019-01-30T01:08:24.667Z,68.80
2019-01-30T01:10:54.947Z,69.10
2019-01-30T01:13:25.743Z,69.30
2019-01-30T01:15:56.101Z,69.40
2019-01-30T01:18:26.320Z,69.20
2019-01-30T01:20:56.663Z,69.00
2019-01-30T01:23:26.917Z,68.30
2019-01-30T01:25:57.253Z,68.70
2019-01-30T01:28:27.631Z,68.30
2019-01-30T01:30:58.313Z,68.50
2019-01-30T01:33:28.619Z,69.00
2019-01-30T01:35:58.895Z,69.00
2019-01-30T01:38:29.033Z,69.10
2019-01-30T01:40:59.260Z,69.00
2019-01-30T01:43:29.505Z,69.30
2019-01-30T01:45:59.957Z,69.10
2019-01-30T01:48:30.178Z,69.10
2019-01-30T01:51:00.321Z,69.10
2019-01-30T01:53:30.577Z,69.00
2019-01-30T01:56:01.079Z,68.60
2019-01-30T01:58:31.559Z,68.60
2019-01-30T02:01:01.856Z,68.80
2019-01-30T02:03:32.348Z,69.00
2019-01-30T02:06:03.193Z,68.90
2019-01-30T02:08:34.503Z,69.00
2019-01-30T02:11:06.232Z,69.70
2019-01-30T02:13:36.589Z,69.60
2019-01-30T02:16:06.965Z,69.50
2019-01-30T02:18:38.120Z,70.00
2019-01-30T02:21:09.115Z,70.20
2019-01-30T02:23:39.397Z,70.50
2019-01-30T02:26:09.878Z,70.50
2019-01-30T02:28:40.503Z,70.30
2019-01-30T02:31:10.748Z,70.20
2019-01-30T02:33:40.897Z,70.40
2019-01-30T02:36:11.061Z,70.00
2019-01-30T02:38:41.246Z,70.50
2019-01-30T02:41:11.443Z,69.60
2019-01-30T02:43:41.950Z,69.60
2019-01-30T02:46:12.063Z,69.90
2019-01-30T02:48:43.316Z,70.00
2019-01-30T02:51:13.485Z,69.90
2019-01-30T02:53:48.444Z,70.10
2019-01-30T02:56:26.407Z,70.20
2019-01-30T02:58:56.705Z,70.30
2019-01-30T03:01:27.310Z,70.30
2019-01-30T03:03:57.800Z,70.40
2019-01-30T03:06:28.368Z,70.40
2019-01-30T03:08:58.481Z,70.50
2019-01-30T03:11:28.559Z,70.30
2019-01-30T03:14:02.803Z,70.10
2019-01-30T03:16:33.047Z,70.10
2019-01-30T03:19:03.449Z,70.00
2019-01-30T03:21:33.752Z,70.20
2019-01-30T03:24:05.372Z,70.00
2019-01-30T03:26:36.827Z,70.40
2019-01-30T03:29:07.106Z,70.30
2019-01-30T03:31:37.814Z,70.40
2019-01-30T03:34:08.058Z,70.30
2019-01-30T03:36:39.688Z,69.70
2019-01-30T03:39:10.076Z,70.30
2019-01-30T03:41:40.536Z,70.10
2019-01-30T03:44:10.771Z,70.30
2019-01-30T03:46:42.546Z,70.00
2019-01-30T03:49:12.759Z,70.60
2019-01-30T03:51:43.085Z,69.90
2019-01-30T03:54:13.329Z,70.30
2019-01-30T03:56:44.148Z,70.20
2019-01-30T03:59:14.277Z,70.40
2019-01-30T04:01:45.530Z,69.90
2019-01-30T04:04:15.828Z,69.40
2019-01-30T04:06:45.972Z,69.70
2019-01-30T04:09:16.280Z,69.40
2019-01-30T04:11:47.024Z,69.90
2019-01-30T04:14:17.232Z,69.70
2019-01-30T04:16:47.451Z,68.70
2019-01-30T04:19:18.182Z,68.30
2019-01-30T04:21:48.496Z,68.70
2019-01-30T04:24:18.765Z,69.40
2019-01-30T04:26:48.969Z,68.80
2019-01-30T04:29:19.189Z,69.40
2019-01-30T04:31:49.531Z,68.60
2019-01-30T04:34:19.823Z,68.60
2019-01-30T04:36:50.829Z,69.70
2019-01-30T04:39:20.990Z,69.20
2019-01-30T04:41:51.097Z,68.70
2019-01-30T04:44:22.858Z,69.00
2019-01-30T04:46:53.163Z,69.90
2019-01-30T04:49:24.325Z,67.20
2019-01-30T04:51:54.532Z,69.20
2019-01-30T04:54:24.912Z,68.80
2019-01-30T04:56:55.202Z,68.80
2019-01-30T04:59:25.431Z,69.20
2019-01-30T05:01:55.731Z,68.70
2019-01-30T05:04:26.420Z,69.00
2019-01-30T05:06:56.609Z,69.00
2019-01-30T05:09:27.271Z,69.30
2019-01-30T05:11:57.905Z,69.40
2019-01-30T05:14:28.169Z,68.80
2019-01-30T05:16:58.387Z,69.30
2019-01-30T05:19:29.093Z,69.30
2019-01-30T05:21:59.206Z,69.10
2019-01-30T05:24:29.711Z,68.90
2019-01-30T05:26:59.936Z,69.40
2019-01-30T05:29:30.437Z,69.60
2019-01-30T05:32:01.617Z,69.70
2019-01-30T05:34:34.371Z,70.10
2019-01-30T05:37:04.584Z,69.70
2019-01-30T05:39:34.971Z,70.20
2019-01-30T05:42:05.358Z,69.30
2019-01-30T05:44:35.668Z,69.20
2019-01-30T05:47:06.084Z,69.40
2019-01-30T05:49:36.599Z,69.50
2019-01-30T05:52:07.954Z,69.10
2019-01-30T05:54:38.460Z,69.00
2019-01-30T05:57:08.810Z,69.40
2019-01-30T05:59:39.396Z,69.10
2019-01-30T06:04:41.009Z,68.50
2019-01-30T06:09:41.873Z,68.40
2019-01-30T06:12:12.077Z,67.90
2019-01-30T06:14:42.862Z,67.70
2019-01-30T06:19:43.201Z,67.30
2019-01-30T06:22:13.495Z,67.10
2019-01-30T06:24:43.787Z,66.90
2019-01-30T06:27:16.054Z,66.60
2019-01-30T06:29:46.302Z,67.00
2019-01-30T06:32:21.919Z,66.80
2019-01-30T06:34:48.592Z,66.00
2019-01-30T06:37:19.074Z,66.00
2019-01-30T06:42:20.542Z,65.50
2019-01-30T06:44:51.168Z,66.20
2019-01-30T06:47:23.192Z,65.60
2019-01-30T06:49:53.466Z,65.10
2019-01-30T06:52:23.674Z,65.40
2019-01-30T06:54:54.292Z,65.00
2019-01-30T06:59:58.918Z,65.20
2019-01-30T07:02:32.271Z,65.00
2019-01-30T07:07:54.824Z,64.80
2019-01-30T07:10:26.727Z,64.10
2019-01-30T07:12:58.642Z,64.10
2019-01-30T07:15:29.049Z,63.60
2019-01-30T07:18:02.849Z,63.30
2019-01-30T07:20:34.132Z,64.30
2019-01-30T07:23:06.119Z,63.10
2019-01-30T07:25:36.855Z,62.80
2019-01-30T07:28:07.361Z,61.80
2019-01-30T07:30:37.666Z,61.60
2019-01-30T07:33:08.397Z,61.90
2019-01-30T07:35:38.915Z,61.30
2019-01-30T07:38:09.682Z,60.60
2019-01-30T07:40:41.333Z,60.50
2019-01-30T07:43:12.330Z,59.70
2019-01-30T07:45:42.931Z,60.00
2019-01-30T07:48:13.793Z,59.90
2019-01-30T07:50:46.415Z,59.80
2019-01-30T07:53:17.154Z,60.00
2019-01-30T07:55:47.475Z,59.30
2019-01-30T07:58:18.095Z,59.20
2019-01-30T08:00:48.778Z,58.70
2019-01-30T08:03:20.693Z,59.20
2019-01-30T08:05:51.306Z,58.20
2019-01-30T08:08:21.453Z,58.80
2019-01-30T08:10:51.675Z,58.30
2019-01-30T08:13:23.619Z,58.00
2019-01-30T08:15:54.178Z,57.80
2019-01-30T08:18:24.483Z,58.10
2019-01-30T08:20:55.142Z,59.40
2019-01-30T08:25:55.919Z,57.60
2019-01-30T08:28:29.214Z,57.30
2019-01-30T08:31:00.221Z,57.70
2019-01-30T08:36:00.442Z,55.60
2019-01-30T08:38:31.169Z,55.40
2019-01-30T08:41:01.339Z,55.90
2019-01-30T08:43:32.035Z,55.30
2019-01-30T08:46:02.172Z,55.60
2019-01-30T08:48:34.294Z,55.00
2019-01-30T08:51:04.690Z,54.70
2019-01-30T08:53:35.375Z,54.60
2019-01-30T08:56:07.698Z,55.30
2019-01-30T08:58:37.908Z,54.20
2019-01-30T09:01:10.105Z,53.90
2019-01-30T09:03:40.871Z,54.30
2019-01-30T09:06:11.177Z,53.50
2019-01-30T09:08:41.552Z,53.30
2019-01-30T09:11:11.794Z,52.90
2019-01-30T09:13:41.945Z,52.50
2019-01-30T09:16:12.120Z,51.90
2019-01-30T09:18:54.879Z,51.60
2019-01-30T09:21:25.045Z,52.90
2019-01-30T09:23:55.295Z,51.10
2019-01-30T09:26:25.785Z,50.80
2019-01-30T09:28:55.945Z,50.70
2019-01-30T09:31:26.686Z,50.20
2019-01-30T09:33:57.196Z,50.30
2019-01-30T09:36:27.544Z,50.10
2019-01-30T09:38:57.938Z,49.40
2019-01-30T09:41:28.393Z,49.60
2019-01-30T09:43:58.945Z,49.70
2019-01-30T09:46:31.711Z,49.10
2019-01-30T09:49:02.655Z,48.90
2019-01-30T09:51:33.012Z,49.00
2019-01-30T09:54:04.010Z,48.20
2019-01-30T09:56:34.406Z,48.10
2019-01-30T09:59:05.270Z,48.40
2019-01-30T10:01:36.394Z,48.10
2019-01-30T10:04:07.325Z,48.50
2019-01-30T10:06:37.567Z,48.20
2019-01-30T10:09:13.029Z,48.20
2019-01-30T10:11:43.415Z,48.50
2019-01-30T10:14:13.822Z,48.50
2019-01-30T10:16:45.077Z,48.70
2019-01-30T10:19:16.063Z,48.60
2019-01-30T10:21:46.340Z,48.60
2019-01-30T10:24:20.134Z,48.10
2019-01-30T10:26:50.313Z,48.10
2019-01-30T10:29:21.256Z,48.50
2019-01-30T10:31:51.533Z,48.60
2019-01-30T10:34:22.570Z,48.20
2019-01-30T10:36:52.891Z,48.30
2019-01-30T10:39:25.192Z,48.00
2019-01-30T10:41:55.492Z,47.90
2019-01-30T10:44:26.509Z,47.70
2019-01-30T10:46:56.832Z,48.10
2019-01-30T10:49:27.448Z,47.10
2019-01-30T10:54:27.186Z,47.10
2019-01-30T10:56:58.661Z,47.50
2019-01-30T10:59:28.918Z,47.60
2019-01-30T11:01:59.263Z,47.80
2019-01-30T11:04:30.051Z,48.10
2019-01-30T11:07:00.296Z,49.10
2019-01-30T11:09:30.857Z,49.40
2019-01-30T11:12:01.072Z,48.90
2019-01-30T11:14:33.106Z,48.80
2019-01-30T11:17:03.270Z,48.80
2019-01-30T11:19:33.536Z,49.20
2019-01-30T11:22:03.941Z,48.80
2019-01-30T11:24:34.458Z,49.30
2019-01-30T11:27:04.931Z,49.20
2019-01-30T11:29:38.285Z,49.40
2019-01-30T11:32:09.728Z,49.60
2019-01-30T11:34:40.361Z,49.60
2019-01-30T11:37:10.698Z,49.60
2019-01-30T11:39:41.222Z,50.00
2019-01-30T11:42:11.527Z,50.20
2019-01-30T11:44:42.150Z,49.60
2019-01-30T11:47:12.415Z,50.00
2019-01-30T11:49:46.584Z,49.20
2019-01-30T11:52:17.392Z,48.90
2019-01-30T11:54:48.330Z,48.80
2019-01-30T11:57:19.168Z,49.40
2019-01-30T11:59:50.862Z,49.50
2019-01-30T12:02:21.680Z,48.80
2019-01-30T12:04:52.047Z,49.20
2019-01-30T12:07:22.661Z,49.60
2019-01-30T12:09:55.754Z,49.80
2019-01-30T12:12:25.086Z,50.60
2019-01-30T12:14:55.296Z,50.00
2019-01-30T12:17:25.460Z,50.10
2019-01-30T12:19:55.797Z,50.10
2019-01-30T12:22:26.497Z,50.50
2019-01-30T12:24:57.559Z,49.60
2019-01-30T12:27:27.787Z,49.40
2019-01-30T12:29:58.005Z,49.40
2019-01-30T12:32:28.353Z,49.50
2019-01-30T12:34:58.615Z,49.90
2019-01-30T12:37:28.799Z,50.70
2019-01-30T12:39:58.948Z,51.10
2019-01-30T12:42:29.191Z,52.30
2019-01-30T12:44:59.713Z,52.00
2019-01-30T12:47:29.910Z,52.80
2019-01-30T12:50:01.996Z,52.60
2019-01-30T12:52:33.228Z,52.30
2019-01-30T12:55:03.961Z,52.50
2019-01-30T12:57:34.118Z,53.10
2019-01-30T13:00:08.662Z,53.20
2019-01-30T13:02:40.522Z,54.00
2019-01-30T13:05:11.343Z,54.40
2019-01-30T13:07:42.348Z,54.00
2019-01-30T13:10:12.832Z,53.90
2019-01-30T13:12:43.256Z,54.30
2019-01-30T13:15:15.246Z,55.30
2019-01-30T13:17:46.779Z,56.10
2019-01-30T13:20:21.172Z,58.50
2019-01-30T13:22:52.485Z,59.00
2019-01-30T13:25:25.072Z,62.20
2019-01-30T13:27:55.160Z,62.20
2019-01-30T13:30:28.312Z,62.00
2019-01-30T13:32:58.690Z,63.10
2019-01-30T13:35:28.976Z,63.60
2019-01-30T13:37:59.128Z,63.60
2019-01-30T13:40:31.576Z,64.40
2019-01-30T13:43:01.846Z,64.70
2019-01-30T13:45:32.612Z,64.70
2019-01-30T13:48:03.198Z,62.90
2019-01-30T13:50:33.649Z,61.80
2019-01-30T13:53:04.022Z,62.40
2019-01-30T13:55:35.932Z,62.40
2019-01-30T13:58:06.184Z,62.50
2019-01-30T14:00:37.395Z,62.30
2019-01-30T14:03:12.704Z,62.80
2019-01-30T14:08:13.686Z,57.10
2019-01-30T14:10:44.404Z,56.10
2019-01-30T14:13:14.518Z,56.40
2019-01-30T14:15:45.386Z,56.50
2019-01-30T14:18:16.579Z,56.10
2019-01-30T14:20:46.950Z,56.00
2019-01-30T14:23:17.458Z,56.00
2019-01-30T14:25:48.359Z,55.30
2019-01-30T14:28:18.599Z,54.50
2019-01-30T14:30:48.814Z,55.00
2019-01-30T14:33:19.031Z,54.70
2019-01-30T14:35:52.185Z,54.40
2019-01-30T14:38:22.517Z,54.50
2019-01-30T14:40:53.377Z,53.80
2019-01-30T14:43:23.621Z,53.40
2019-01-30T14:45:54.090Z,52.60
2019-01-30T14:48:24.299Z,52.00
2019-01-30T14:50:54.623Z,51.70
2019-01-30T14:53:24.867Z,52.20
2019-01-30T14:55:55.486Z,51.60
2019-01-30T14:58:26.327Z,51.90
2019-01-30T15:00:57.584Z,52.30
2019-01-30T15:03:27.809Z,51.30
2019-01-30T15:05:58.336Z,50.50
2019-01-30T15:08:28.546Z,50.80
2019-01-30T15:10:59.033Z,50.80
2019-01-30T15:13:29.784Z,50.90
2019-01-30T15:16:00.494Z,51.50
2019-01-30T15:18:30.811Z,51.10
2019-01-30T15:21:00.960Z,50.20
2019-01-30T15:23:31.150Z,51.50
2019-01-30T15:26:02.740Z,49.60
2019-01-30T15:28:33.049Z,49.70
2019-01-30T15:31:03.670Z,50.20
2019-01-30T15:33:33.931Z,49.70
2019-01-30T15:36:04.738Z,49.10
2019-01-30T15:38:34.907Z,49.40
2019-01-30T15:43:35.402Z,48.40
2019-01-30T15:46:06.526Z,48.80
2019-01-30T15:48:36.705Z,48.80
2019-01-30T15:51:08.501Z,48.80
2019-01-30T15:56:10.891Z,48.80
2019-01-30T15:58:43.638Z,48.70
2019-01-30T16:03:49.727Z,48.40
2019-01-30T16:06:20.341Z,49.00
2019-01-30T16:08:50.522Z,48.80
2019-01-30T16:11:25.014Z,49.30
2019-01-30T16:13:55.152Z,49.60
2019-01-30T16:16:25.736Z,49.90
2019-01-30T16:21:25.973Z,49.60
2019-01-30T16:23:56.406Z,50.30
2019-01-30T16:26:26.627Z,50.50
2019-01-30T16:28:56.964Z,49.90
2019-01-30T16:31:27.489Z,51.00
2019-01-30T16:33:57.665Z,50.90
2019-01-30T16:36:27.837Z,52.50
2019-01-30T16:38:58.367Z,51.30
2019-01-30T16:41:28.935Z,51.50
2019-01-30T16:43:59.239Z,51.50
2019-01-30T16:46:30.479Z,51.70
2019-01-30T16:49:00.780Z,51.50
2019-01-30T16:51:31.141Z,52.00
2019-01-30T16:54:04.312Z,50.90
2019-01-30T16:56:36.098Z,51.50
2019-01-30T16:59:06.738Z,50.80
2019-01-30T17:01:37.386Z,51.10
2019-01-30T17:04:07.682Z,50.80
2019-01-30T17:06:38.389Z,50.70
2019-01-30T17:09:09.155Z,51.20
2019-01-30T17:11:39.652Z,51.20
2019-01-30T17:14:10.200Z,50.90
2019-01-30T17:16:40.505Z,50.80
2019-01-30T17:19:11.058Z,51.30
2019-01-30T17:21:42.493Z,51.10
2019-01-30T17:24:15.593Z,51.20
2019-01-30T17:26:47.434Z,51.70
2019-01-30T17:29:18.224Z,51.40
2019-01-30T17:31:48.610Z,51.30
2019-01-30T17:34:19.436Z,51.50
2019-01-30T17:36:49.747Z,51.80
2019-01-30T17:39:20.453Z,52.20
2019-01-30T17:41:51.644Z,52.20
2019-01-30T17:44:22.365Z,52.60
2019-01-30T17:46:55.398Z,53.10
2019-01-30T17:49:26.169Z,53.00
2019-01-30T17:51:56.736Z,53.10
2019-01-30T17:54:28.209Z,52.70
2019-01-30T17:59:30.249Z,52.60
2019-01-30T18:02:00.982Z,53.10
2019-01-30T18:04:31.304Z,53.20
2019-01-30T18:07:03.090Z,53.50
2019-01-30T18:09:33.512Z,53.80
2019-01-30T18:12:04.142Z,54.50
2019-01-30T18:14:34.396Z,54.50
2019-01-30T18:17:04.605Z,54.20
2019-01-30T18:19:35.129Z,54.30
2019-01-30T18:22:06.069Z,54.50
2019-01-30T18:24:36.596Z,54.70
2019-01-30T18:29:36.962Z,54.90
2019-01-30T18:32:09.391Z,54.60
2019-01-30T18:34:41.452Z,54.60
2019-01-30T18:37:11.832Z,54.70
2019-01-30T18:39:42.580Z,55.00
2019-01-30T18:42:13.394Z,55.20
2019-01-30T18:44:43.697Z,55.50
2019-01-30T18:47:14.657Z,55.50
2019-01-30T18:49:45.253Z,55.60
2019-01-30T18:52:17.233Z,55.20
2019-01-30T18:54:47.966Z,55.70
2019-01-30T18:57:18.178Z,55.60
2019-01-30T18:59:48.422Z,55.50
2019-01-30T19:02:19.143Z,55.40
2019-01-30T19:04:54.003Z,55.40
2019-01-30T19:07:24.416Z,55.40
2019-01-30T19:09:55.150Z,54.70
2019-01-30T19:12:25.654Z,55.30
2019-01-30T19:14:56.063Z,55.30
2019-01-30T19:17:26.801Z,55.20
2019-01-30T19:19:57.344Z,55.40
2019-01-30T19:22:27.877Z,55.30
2019-01-30T19:25:00.601Z,55.50
2019-01-30T19:27:31.632Z,54.90
2019-01-30T19:30:04.438Z,54.90
2019-01-30T19:32:34.990Z,54.00
2019-01-30T19:35:06.091Z,54.70
2019-01-30T19:37:38.196Z,53.70
2019-01-30T19:40:09.162Z,54.30
2019-01-30T19:42:39.583Z,54.50
2019-01-30T19:45:12.542Z,54.90
2019-01-30T19:50:18.685Z,54.90
2019-01-30T19:52:50.651Z,54.90
2019-01-30T19:55:23.589Z,55.30
2019-01-30T19:57:54.553Z,55.40
2019-01-30T20:00:27.626Z,56.30
2019-01-30T20:02:57.959Z,56.00
2019-01-30T20:05:29.453Z,56.10
2019-01-30T20:07:59.914Z,55.70
2019-01-30T20:10:32.336Z,55.00
2019-01-30T20:13:02.881Z,54.90
2019-01-30T20:15:33.553Z,54.50
2019-01-30T20:18:04.005Z,54.80
2019-01-30T20:20:34.767Z,55.50
2019-01-30T20:23:07.054Z,54.30
2019-01-30T20:25:38.100Z,54.60
2019-01-30T20:28:09.788Z,54.70
2019-01-30T20:30:41.559Z,54.80
2019-01-30T20:33:11.913Z,54.60
2019-01-30T20:35:42.419Z,54.70
2019-01-30T20:38:13.498Z,55.00
2019-01-30T20:40:46.256Z,55.90
2019-01-30T20:43:17.302Z,55.60
2019-01-30T20:45:50.060Z,56.70
2019-01-30T20:48:21.847Z,55.90
2019-01-30T20:53:26.052Z,56.30
2019-01-30T20:55:56.765Z,56.50
2019-01-30T20:58:27.766Z,56.80
2019-01-30T21:00:58.625Z,57.40
2019-01-30T21:03:30.957Z,57.70
2019-01-30T21:06:06.512Z,57.50
2019-01-30T21:08:38.178Z,58.10
2019-01-30T21:11:11.241Z,58.00
2019-01-30T21:13:42.218Z,58.40
2019-01-30T21:16:13.374Z,58.50
2019-01-30T21:18:43.941Z,59.20
2019-01-30T21:21:14.367Z,59.00
2019-01-30T21:23:45.708Z,59.60
2019-01-30T21:26:16.753Z,59.30
2019-01-30T21:28:47.219Z,59.50
2019-01-30T21:31:18.756Z,59.60
2019-01-30T21:33:50.335Z,59.70
2019-01-30T21:38:51.145Z,59.60
2019-01-30T21:41:21.464Z,60.50
2019-01-30T21:43:51.804Z,60.20
2019-01-30T21:46:22.672Z,60.20
2019-01-30T21:48:55.300Z,60.30
2019-01-30T21:51:25.011Z,60.60
2019-01-30T21:53:55.410Z,61.10
2019-01-30T21:56:25.981Z,61.30
2019-01-30T21:58:56.197Z,61.50
2019-01-30T22:01:26.661Z,61.60
2019-01-30T22:03:57.042Z,62.20
2019-01-30T22:06:27.742Z,61.80
2019-01-30T22:08:57.942Z,61.70
2019-01-30T22:11:28.133Z,61.30
2019-01-30T22:13:58.649Z,61.60
2019-01-30T22:16:29.393Z,61.60
2019-01-30T22:19:00.901Z,61.70
2019-01-30T22:21:31.291Z,61.90
2019-01-30T22:24:05.669Z,61.90
2019-01-30T22:26:34.284Z,62.00
2019-01-30T22:29:04.570Z,61.90
2019-01-30T22:31:34.932Z,62.10
2019-01-30T22:34:05.608Z,62.70
2019-01-30T22:36:35.898Z,63.40
2019-01-30T22:39:08.631Z,63.80
2019-01-30T22:41:38.783Z,63.60
2019-01-30T22:44:10.815Z,63.50
2019-01-30T22:46:41.067Z,63.50
2019-01-30T22:49:11.273Z,63.10
2019-01-30T22:51:41.583Z,62.90
2019-01-30T22:54:11.859Z,62.00
2019-01-30T22:56:42.633Z,62.60
2019-01-30T22:59:12.875Z,62.10
2019-01-30T23:02:00.503Z,62.00
2019-01-30T23:04:53.976Z,62.00
2019-01-30T23:07:49.206Z,61.60
2019-01-30T23:10:50.934Z,61.50
2019-01-30T23:13:36.086Z,61.40
2019-01-30T23:16:31.851Z,61.00
2019-01-30T23:19:47.303Z,61.40
2019-01-30T23:22:46.564Z,61.60
2019-01-30T23:25:41.004Z,62.00
2019-01-30T23:28:35.618Z,62.30
2019-01-30T23:31:32.401Z,62.50
2019-01-30T23:34:25.121Z,62.60
2019-01-30T23:37:27.720Z,62.80
2019-01-30T23:40:22.293Z,63.40
2019-01-30T23:43:08.445Z,63.40
2019-01-30T23:45:55.814Z,63.70
2019-01-30T23:49:18.052Z,63.90
2019-01-30T23:52:41.412Z,63.90
2019-01-30T23:55:24.033Z,64.10
2019-01-30T23:58:23.827Z,64.10
